createdAt,value
2023-01-29T00:02:15.944Z,0.50
2023-01-29T00:04:43.035Z,0.50
2023-01-29T00:07:09.994Z,0.50
2023-01-29T00:09:37.174Z,0.50
2023-01-29T00:12:04.283Z,0.50
2023-01-29T00:14:31.285Z,0.50
2023-01-29T00:16:58.300Z,0.50
2023-01-29T00:19:25.429Z,0.50
2023-01-29T00:21:52.616Z,0.50
2023-01-29T00:24:19.710Z,0.50
2023-01-29T00:26:47.133Z,0.50
2023-01-29T00:29:14.767Z,0.50
2023-01-29T00:31:45.163Z,0.50
2023-01-29T00:34:12.309Z,0.50
2023-01-29T00:36:39.448Z,0.50
2023-01-29T00:39:11.065Z,0.50
2023-01-29T00:41:57.199Z,0.50
2023-01-29T00:44:42.987Z,0.50
2023-01-29T00:47:28.587Z,0.50
2023-01-29T00:49:55.952Z,0.60
2023-01-29T00:52:26.241Z,0.50
2023-01-29T00:54:55.119Z,0.50
2023-01-29T00:57:23.383Z,0.50
2023-01-29T00:59:50.538Z,0.50
2023-01-29T01:02:36.050Z,0.50
2023-01-29T01:05:07.805Z,0.50
2023-01-29T01:07:34.939Z,0.50
2023-01-29T01:10:20.628Z,0.40
2023-01-29T01:13:04.713Z,0.50
2023-01-29T01:15:35.569Z,0.40
2023-01-29T01:18:04.263Z,0.40
2023-01-29T01:20:34.964Z,0.40
2023-01-29T01:23:02.615Z,0.40
2023-01-29T01:25:29.631Z,0.40
2023-01-29T01:30:27.101Z,0.30
2023-01-29T01:32:54.408Z,0.30
2023-01-29T01:35:21.614Z,0.30
2023-01-29T01:37:49.373Z,0.20
2023-01-29T01:40:19.692Z,0.20
2023-01-29T01:42:55.943Z,0.20
2023-01-29T01:45:29.115Z,0.20
2023-01-29T01:48:02.262Z,0.20
2023-01-29T01:50:37.320Z,0.20
2023-01-29T01:53:13.593Z,0.20
2023-01-29T01:55:49.235Z,0.20
2023-01-29T01:58:25.892Z,0.20
2023-01-29T02:00:53.793Z,0.10
2023-01-29T02:03:40.859Z,0.10
2023-01-29T02:06:27.851Z,0.10
2023-01-29T02:09:16.306Z,0.10
2023-01-29T02:11:43.422Z,0.00
2023-01-29T02:14:11.832Z,0.00
2023-01-29T02:16:39.324Z,0.10
2023-01-29T02:19:16.633Z,0.00
2023-01-29T02:22:22.936Z,0.00
2023-01-29T02:25:11.768Z,0.00
2023-01-29T02:27:41.864Z,0.00
2023-01-29T02:30:12.773Z,0.00
2023-01-29T02:32:58.719Z,0.00
2023-01-29T02:35:37.452Z,0.00
2023-01-29T02:38:32.941Z,0.00
2023-01-29T02:41:20.466Z,0.00
2023-01-29T02:43:55.809Z,0.00
2023-01-29T02:46:39.101Z,0.00
2023-01-29T02:49:19.149Z,0.00
2023-01-29T02:52:02.912Z,0.00
2023-01-29T02:54:43.276Z,0.00
2023-01-29T02:57:32.869Z,0.00
2023-01-29T03:00:09.404Z,0.00
2023-01-29T03:02:47.734Z,0.00
2023-01-29T03:05:25.575Z,0.00
2023-01-29T03:07:58.729Z,0.00
2023-01-29T03:10:44.308Z,0.00
2023-01-29T03:13:46.547Z,0.00
2023-01-29T03:16:22.274Z,0.00
2023-01-29T03:19:04.931Z,0.00
2023-01-29T03:21:55.228Z,0.00
2023-01-29T03:25:03.816Z,0.00
2023-01-29T03:27:58.701Z,0.00
2023-01-29T03:30:51.799Z,0.00
2023-01-29T03:33:32.644Z,0.00
2023-01-29T03:36:06.653Z,0.00
2023-01-29T03:38:33.867Z,0.00
2023-01-29T03:41:07.989Z,0.00
2023-01-29T03:43:44.935Z,0.00
2023-01-29T03:46:36.503Z,0.00
2023-01-29T03:49:11.953Z,0.00
2023-01-29T03:52:12.624Z,0.00
2023-01-29T03:54:55.023Z,0.00
2023-01-29T03:57:42.557Z,0.00
2023-01-29T04:00:27.953Z,0.00
2023-01-29T04:03:15.910Z,0.00
2023-01-29T04:05:46.133Z,0.00
2023-01-29T04:08:27.494Z,0.00
2023-01-29T04:10:59.230Z,0.10
2023-01-29T04:13:30.129Z,0.10
2023-01-29T04:15:59.501Z,0.10
2023-01-29T04:18:49.754Z,0.10
2023-01-29T04:21:22.449Z,0.20
2023-01-29T04:23:49.446Z,0.20
2023-01-29T04:26:25.151Z,0.20
2023-01-29T04:29:24.382Z,0.20
2023-01-29T04:32:23.809Z,0.20
2023-01-29T04:35:01.483Z,0.20
2023-01-29T04:37:43.389Z,0.20
2023-01-29T04:40:23.529Z,0.30
2023-01-29T04:42:57.212Z,0.30
2023-01-29T04:45:34.284Z,0.30
2023-01-29T04:48:25.785Z,0.30
2023-01-29T04:50:55.498Z,0.30
2023-01-29T04:53:41.007Z,0.30
2023-01-29T04:56:11.869Z,0.30
2023-01-29T04:58:56.200Z,0.30
2023-01-29T05:01:28.861Z,0.30
2023-01-29T05:03:56.960Z,0.30
2023-01-29T05:06:25.034Z,0.30
2023-01-29T05:08:53.211Z,0.30
2023-01-29T05:11:20.511Z,0.30
2023-01-29T05:13:49.497Z,0.40
2023-01-29T05:16:26.736Z,0.40
2023-01-29T05:18:54.222Z,0.40
2023-01-29T05:21:23.182Z,0.40
2023-01-29T05:24:19.981Z,0.40
2023-01-29T05:27:07.137Z,0.40
2023-01-29T05:29:34.380Z,0.40
2023-01-29T05:32:01.715Z,0.40
2023-01-29T05:34:28.717Z,0.40
2023-01-29T05:36:55.774Z,0.40
2023-01-29T05:39:22.828Z,0.50
2023-01-29T05:41:49.810Z,0.50
2023-01-29T05:44:16.871Z,0.50
2023-01-29T05:46:44.082Z,0.50
2023-01-29T05:49:11.084Z,0.50
2023-01-29T05:51:38.384Z,0.50
2023-01-29T05:54:05.736Z,0.50
2023-01-29T05:56:32.655Z,0.60
2023-01-29T05:58:59.695Z,0.60
2023-01-29T06:01:26.766Z,0.60
2023-01-29T06:03:53.805Z,0.60
2023-01-29T06:06:20.819Z,0.60
2023-01-29T06:08:48.220Z,0.60
2023-01-29T06:11:16.445Z,0.70
2023-01-29T06:13:43.692Z,0.70
2023-01-29T06:16:13.180Z,0.70
2023-01-29T06:18:40.860Z,0.70
2023-01-29T06:21:11.137Z,0.70
2023-01-29T06:23:38.482Z,0.70
2023-01-29T06:26:11.461Z,0.70
2023-01-29T06:28:38.997Z,0.80
2023-01-29T06:31:37.455Z,0.70
2023-01-29T06:33:54.360Z,0.80
2023-01-29T06:36:21.361Z,0.80
2023-01-29T06:38:48.434Z,0.80
2023-01-29T06:41:18.910Z,0.80
2023-01-29T06:43:46.466Z,0.80
2023-01-29T06:46:13.652Z,0.80
2023-01-29T06:48:40.753Z,0.80
2023-01-29T06:51:09.436Z,0.80
2023-01-29T06:53:38.069Z,0.80
2023-01-29T06:56:06.281Z,0.80
2023-01-29T06:58:33.436Z,0.80
2023-01-29T07:01:08.674Z,0.80
2023-01-29T07:03:36.121Z,0.90
2023-01-29T07:06:03.544Z,0.80
2023-01-29T07:08:30.889Z,0.90
2023-01-29T07:11:01.732Z,0.80
2023-01-29T07:13:29.156Z,0.90
2023-01-29T07:16:00.737Z,0.90
2023-01-29T07:18:28.571Z,0.90
2023-01-29T07:20:56.118Z,0.90
2023-01-29T07:23:23.547Z,0.90
2023-01-29T07:25:51.255Z,0.90
2023-01-29T07:28:23.196Z,0.90
2023-01-29T07:30:50.225Z,0.90
2023-01-29T07:33:17.137Z,0.90
2023-01-29T07:35:44.233Z,0.90
2023-01-29T07:38:11.913Z,0.90
2023-01-29T07:40:39.049Z,0.90
2023-01-29T07:43:07.706Z,0.90
2023-01-29T07:45:36.896Z,0.90
2023-01-29T07:48:05.208Z,0.90
2023-01-29T07:50:34.186Z,0.90
2023-01-29T07:53:01.752Z,1.00
2023-01-29T07:55:28.878Z,1.00
2023-01-29T07:57:57.384Z,1.00
2023-01-29T08:00:24.721Z,1.00
2023-01-29T08:02:52.004Z,1.00
2023-01-29T08:05:19.083Z,1.00
2023-01-29T08:07:51.520Z,1.00
2023-01-29T08:10:28.220Z,1.10
2023-01-29T08:12:59.984Z,1.10
2023-01-29T08:15:27.663Z,1.10
2023-01-29T08:17:57.942Z,1.10
2023-01-29T08:20:26.134Z,1.10
2023-01-29T08:23:03.098Z,1.20
2023-01-29T08:25:30.346Z,1.10
2023-01-29T08:27:58.781Z,1.20
2023-01-29T08:30:28.450Z,1.20
2023-01-29T08:32:55.578Z,1.20
2023-01-29T08:35:22.628Z,1.20
2023-01-29T08:38:13.945Z,1.30
2023-01-29T08:40:50.752Z,1.30
2023-01-29T08:43:20.930Z,1.30
2023-01-29T08:45:48.244Z,1.30
2023-01-29T08:48:15.205Z,1.30
2023-01-29T08:50:42.277Z,1.30
2023-01-29T08:53:09.788Z,1.30
2023-01-29T08:55:39.082Z,1.30
2023-01-29T08:58:08.048Z,1.40
2023-01-29T09:00:35.830Z,1.40
2023-01-29T09:03:03.899Z,1.40
2023-01-29T09:05:31.116Z,1.40
2023-01-29T09:07:58.220Z,1.50
2023-01-29T09:10:26.114Z,1.40
2023-01-29T09:12:53.166Z,1.50
2023-01-29T09:15:20.252Z,1.50
2023-01-29T09:17:49.071Z,1.50
2023-01-29T09:20:16.985Z,1.50
2023-01-29T09:22:44.140Z,1.50
2023-01-29T09:25:11.339Z,1.60
2023-01-29T09:27:38.314Z,1.60
2023-01-29T09:30:06.909Z,1.60
2023-01-29T09:32:52.624Z,1.60
2023-01-29T09:35:22.966Z,1.60
2023-01-29T09:37:50.936Z,1.60
2023-01-29T09:40:41.191Z,1.60
2023-01-29T09:43:22.718Z,1.60
2023-01-29T09:46:05.554Z,1.60
2023-01-29T09:48:35.993Z,1.70
2023-01-29T09:51:11.641Z,1.70
2023-01-29T09:53:51.263Z,1.70
2023-01-29T09:56:21.849Z,1.70
2023-01-29T09:58:48.943Z,1.70
2023-01-29T10:01:38.973Z,1.70
2023-01-29T10:04:18.371Z,1.70
2023-01-29T10:06:57.147Z,1.80
2023-01-29T10:09:32.829Z,1.80
2023-01-29T10:12:31.832Z,1.80
2023-01-29T10:15:13.713Z,1.70
2023-01-29T10:17:59.454Z,1.80
2023-01-29T10:20:35.355Z,1.80
2023-01-29T10:23:20.222Z,1.80
2023-01-29T10:25:49.087Z,1.80
2023-01-29T10:28:24.611Z,1.80
2023-01-29T10:30:57.784Z,1.80
2023-01-29T10:33:48.785Z,1.80
2023-01-29T10:36:33.126Z,1.80
2023-01-29T10:39:00.309Z,1.80
2023-01-29T10:41:30.043Z,1.90
2023-01-29T10:44:35.145Z,1.90
2023-01-29T10:47:10.135Z,1.90
2023-01-29T10:50:09.175Z,1.90
2023-01-29T10:52:47.114Z,1.90
2023-01-29T10:55:26.113Z,1.90
2023-01-29T10:58:22.830Z,1.90
2023-01-29T11:00:50.336Z,1.90
2023-01-29T11:03:33.002Z,1.90
2023-01-29T11:06:19.119Z,1.90
2023-01-29T11:09:16.706Z,1.90
2023-01-29T11:11:50.919Z,2.00
2023-01-29T11:14:38.061Z,2.00
2023-01-29T11:17:05.174Z,2.00
2023-01-29T11:19:43.621Z,2.00
2023-01-29T11:22:20.141Z,2.00
2023-01-29T11:25:06.832Z,2.00
2023-01-29T11:27:35.691Z,2.00
2023-01-29T11:30:02.958Z,2.00
2023-01-29T11:32:34.524Z,2.10
2023-01-29T11:35:06.364Z,2.00
2023-01-29T11:37:38.963Z,2.10
2023-01-29T11:40:24.415Z,2.10
2023-01-29T11:42:54.670Z,2.10
2023-01-29T11:45:29.972Z,2.20
2023-01-29T11:47:57.641Z,2.20
2023-01-29T11:50:31.752Z,2.20
2023-01-29T11:53:00.323Z,2.20
2023-01-29T11:55:48.116Z,2.20
2023-01-29T11:58:21.057Z,2.20
2023-01-29T12:00:51.171Z,2.30
2023-01-29T12:03:34.873Z,2.30
2023-01-29T12:06:07.164Z,2.30
2023-01-29T12:08:38.020Z,2.30
2023-01-29T12:11:15.794Z,2.40
2023-01-29T12:13:45.767Z,2.40
2023-01-29T12:16:23.757Z,2.40
2023-01-29T12:18:56.982Z,2.40
2023-01-29T12:21:45.563Z,2.40
2023-01-29T12:24:19.329Z,2.50
2023-01-29T12:27:24.943Z,2.50
2023-01-29T12:30:13.759Z,2.50
2023-01-29T12:33:01.168Z,2.50
2023-01-29T12:35:51.153Z,2.60
2023-01-29T12:38:19.075Z,2.60
2023-01-29T12:40:55.426Z,2.70
2023-01-29T12:43:32.298Z,2.70
2023-01-29T12:46:01.203Z,2.70
2023-01-29T12:48:41.107Z,2.80
2023-01-29T12:51:18.739Z,2.80
2023-01-29T12:53:53.264Z,2.90
2023-01-29T12:56:30.982Z,2.90
2023-01-29T12:59:01.745Z,2.90
2023-01-29T13:01:41.652Z,3.00
2023-01-29T13:04:51.084Z,3.00
2023-01-29T13:07:23.715Z,3.10
2023-01-29T13:09:55.450Z,3.10
2023-01-29T13:12:24.349Z,3.10
2023-01-29T13:15:14.674Z,3.20
2023-01-29T13:17:46.396Z,3.20
2023-01-29T13:20:43.519Z,3.20
2023-01-29T13:23:22.649Z,3.20
2023-01-29T13:25:53.728Z,3.20
2023-01-29T13:28:24.291Z,3.30
2023-01-29T13:31:29.911Z,3.30
2023-01-29T13:34:24.960Z,3.30
2023-01-29T13:36:57.980Z,3.30
2023-01-29T13:39:27.543Z,3.30
2023-01-29T13:41:55.911Z,3.30
2023-01-29T13:44:35.922Z,3.30
2023-01-29T13:47:11.381Z,3.30
2023-01-29T13:49:52.954Z,3.30
2023-01-29T13:52:40.994Z,3.30
2023-01-29T13:55:19.230Z,3.30
2023-01-29T13:57:50.268Z,3.40
2023-01-29T14:00:30.788Z,3.40
2023-01-29T14:03:00.703Z,3.40
2023-01-29T14:05:30.845Z,3.40
2023-01-29T14:08:02.536Z,3.40
2023-01-29T14:10:33.113Z,3.40
2023-01-29T14:13:18.143Z,3.40
2023-01-29T14:16:05.466Z,3.40
2023-01-29T14:18:35.056Z,3.40
2023-01-29T14:21:17.638Z,3.50
2023-01-29T14:23:49.886Z,3.50
2023-01-29T14:26:35.232Z,3.50
2023-01-29T14:29:33.771Z,3.50
2023-01-29T14:32:04.504Z,3.50
2023-01-29T14:34:57.929Z,3.50
2023-01-29T14:37:47.647Z,3.50
2023-01-29T14:40:20.195Z,3.60
2023-01-29T14:43:05.623Z,3.50
2023-01-29T14:45:37.616Z,3.60
2023-01-29T14:48:10.549Z,3.60
2023-01-29T14:50:37.935Z,3.60
2023-01-29T14:53:27.875Z,3.60
2023-01-29T14:56:14.239Z,3.70
2023-01-29T14:58:51.197Z,3.70
2023-01-29T15:01:32.583Z,3.70
2023-01-29T15:04:20.552Z,3.70
2023-01-29T15:07:01.333Z,3.70
2023-01-29T15:09:49.760Z,3.70
2023-01-29T15:12:44.098Z,3.80
2023-01-29T15:15:27.432Z,3.80
2023-01-29T15:18:06.603Z,3.80
2023-01-29T15:20:38.387Z,3.80
2023-01-29T15:23:33.011Z,3.80
2023-01-29T15:26:03.404Z,3.80
2023-01-29T15:28:32.448Z,3.90
2023-01-29T15:31:01.868Z,3.80
2023-01-29T15:33:29.303Z,3.90
2023-01-29T15:36:06.936Z,3.90
2023-01-29T15:38:34.734Z,3.90
2023-01-29T15:41:03.903Z,3.90
2023-01-29T15:43:43.130Z,3.90
2023-01-29T15:46:25.665Z,3.90
2023-01-29T15:48:54.993Z,3.90
2023-01-29T15:51:25.110Z,3.90
2023-01-29T15:54:01.901Z,3.90
2023-01-29T15:56:40.792Z,3.90
2023-01-29T15:59:15.396Z,3.90
2023-01-29T16:01:42.935Z,3.90
2023-01-29T16:04:15.109Z,3.90
2023-01-29T16:06:43.856Z,4.00
2023-01-29T16:09:17.589Z,4.00
2023-01-29T16:11:45.621Z,4.00
2023-01-29T16:14:16.420Z,4.00
2023-01-29T16:16:48.571Z,4.00
2023-01-29T16:19:25.132Z,4.00
2023-01-29T16:22:02.562Z,4.00
2023-01-29T16:24:31.356Z,4.00
2023-01-29T16:27:02.104Z,4.00
2023-01-29T16:29:31.963Z,4.00
2023-01-29T16:32:02.168Z,4.00
2023-01-29T16:34:36.359Z,4.00
2023-01-29T16:37:05.219Z,4.00
2023-01-29T16:39:39.154Z,4.00
2023-01-29T16:42:20.042Z,4.00
2023-01-29T16:45:27.693Z,4.00
2023-01-29T16:48:02.865Z,4.00
2023-01-29T16:50:43.408Z,4.00
2023-01-29T16:53:23.267Z,4.00
2023-01-29T16:55:52.604Z,3.90
2023-01-29T16:58:22.909Z,4.00
2023-01-29T17:00:54.095Z,3.90
2023-01-29T17:03:24.707Z,3.90
2023-01-29T17:05:52.575Z,4.00
2023-01-29T17:08:29.728Z,4.00
2023-01-29T17:10:57.054Z,3.90
2023-01-29T17:13:45.339Z,3.90
2023-01-29T17:16:15.437Z,3.90
2023-01-29T17:18:42.436Z,4.00
2023-01-29T17:21:09.415Z,3.90
2023-01-29T17:23:36.572Z,3.90
2023-01-29T17:26:06.878Z,3.90
2023-01-29T17:28:35.205Z,3.90
2023-01-29T17:31:06.685Z,3.90
2023-01-29T17:33:35.712Z,3.90
2023-01-29T17:36:02.759Z,3.90
2023-01-29T17:38:29.951Z,4.00
2023-01-29T17:41:09.077Z,3.90
2023-01-29T17:43:36.164Z,3.90
2023-01-29T17:46:03.559Z,4.00
2023-01-29T17:48:31.055Z,4.00
2023-01-29T17:51:02.584Z,4.00
2023-01-29T17:53:44.268Z,4.00
2023-01-29T17:56:18.104Z,4.00
2023-01-29T17:58:45.214Z,4.00
2023-01-29T18:01:12.122Z,4.00
2023-01-29T18:03:39.213Z,4.00
2023-01-29T18:06:09.989Z,4.00
2023-01-29T18:08:39.431Z,4.00
2023-01-29T18:11:07.448Z,4.00
2023-01-29T18:13:36.203Z,4.00
2023-01-29T18:16:03.645Z,4.00
2023-01-29T18:18:30.703Z,4.00
2023-01-29T18:20:57.756Z,4.00
2023-01-29T18:23:24.784Z,4.00
2023-01-29T18:25:52.825Z,4.00
2023-01-29T18:28:19.992Z,4.00
2023-01-29T18:30:47.820Z,4.00
2023-01-29T18:33:15.961Z,4.00
2023-01-29T18:35:48.334Z,4.00
2023-01-29T18:38:16.231Z,4.00
2023-01-29T18:40:43.651Z,4.00
2023-01-29T18:43:10.711Z,4.00
2023-01-29T18:45:37.752Z,4.00
2023-01-29T18:48:05.242Z,4.00
2023-01-29T18:50:32.429Z,4.00
2023-01-29T18:52:59.423Z,4.00
2023-01-29T18:55:29.236Z,4.00
2023-01-29T18:58:27.174Z,4.00
2023-01-29T19:00:44.778Z,4.10
2023-01-29T19:03:11.833Z,4.00
2023-01-29T19:05:39.083Z,4.00
2023-01-29T19:08:06.187Z,4.00
2023-01-29T19:10:33.646Z,4.00
2023-01-29T19:13:00.593Z,4.00
2023-01-29T19:15:27.779Z,4.00
2023-01-29T19:17:55.255Z,4.00
2023-01-29T19:20:22.232Z,4.00
2023-01-29T19:22:49.290Z,4.00
2023-01-29T19:25:18.089Z,4.00
2023-01-29T19:27:45.897Z,4.00
2023-01-29T19:30:13.396Z,4.00
2023-01-29T19:32:41.175Z,4.00
2023-01-29T19:35:08.384Z,4.00
2023-01-29T19:37:35.355Z,4.00
2023-01-29T19:40:02.404Z,4.00
2023-01-29T19:42:29.404Z,4.00
2023-01-29T19:44:56.395Z,4.00
2023-01-29T19:47:23.429Z,4.00
2023-01-29T19:49:50.550Z,4.00
2023-01-29T19:52:49.896Z,4.00
2023-01-29T19:55:19.762Z,4.00
2023-01-29T19:57:47.242Z,4.00
2023-01-29T20:00:15.563Z,4.00
2023-01-29T20:02:42.518Z,4.00
2023-01-29T20:05:12.127Z,4.00
2023-01-29T20:07:42.560Z,3.90
2023-01-29T20:10:17.072Z,3.90
2023-01-29T20:12:45.813Z,3.90
2023-01-29T20:15:14.544Z,3.90
2023-01-29T20:17:41.708Z,4.00
2023-01-29T20:20:09.795Z,4.00
2023-01-29T20:22:36.900Z,3.90
2023-01-29T20:25:04.325Z,3.90
2023-01-29T20:27:31.436Z,3.90
2023-01-29T20:29:59.388Z,3.90
2023-01-29T20:32:26.418Z,3.90
2023-01-29T20:34:53.369Z,3.90
2023-01-29T20:37:20.479Z,3.90
2023-01-29T20:39:47.607Z,3.90
2023-01-29T20:42:14.903Z,3.90
2023-01-29T20:44:42.123Z,3.90
2023-01-29T20:47:09.246Z,3.90
2023-01-29T20:49:36.259Z,3.90
2023-01-29T20:52:03.705Z,3.90
2023-01-29T20:54:33.306Z,3.90
2023-01-29T20:57:00.610Z,3.90
2023-01-29T20:59:29.109Z,3.90
2023-01-29T21:01:56.318Z,3.90
2023-01-29T21:04:23.526Z,3.90
2023-01-29T21:06:50.578Z,3.90
2023-01-29T21:09:17.627Z,3.90
2023-01-29T21:11:45.138Z,4.00
2023-01-29T21:14:12.587Z,4.00
2023-01-29T21:16:41.133Z,4.00
2023-01-29T21:19:08.849Z,4.00
2023-01-29T21:21:36.010Z,4.00
2023-01-29T21:24:03.151Z,4.10
2023-01-29T21:26:30.230Z,4.10
2023-01-29T21:28:57.369Z,4.10
2023-01-29T21:31:24.448Z,4.20
2023-01-29T21:33:51.486Z,4.20
2023-01-29T21:36:18.567Z,4.20
2023-01-29T21:38:45.550Z,4.20
2023-01-29T21:41:12.688Z,4.20
2023-01-29T21:43:39.807Z,4.30
2023-01-29T21:46:12.100Z,4.30
2023-01-29T21:48:40.317Z,4.30
2023-01-29T21:51:07.921Z,4.30
2023-01-29T21:53:35.148Z,4.40
2023-01-29T21:56:03.182Z,4.40
2023-01-29T21:58:30.667Z,4.40
2023-01-29T22:01:17.934Z,4.40
2023-01-29T22:03:47.261Z,4.50
2023-01-29T22:06:14.976Z,4.50
2023-01-29T22:08:41.972Z,4.50
2023-01-29T22:11:09.519Z,4.50
2023-01-29T22:13:36.727Z,4.50
2023-01-29T22:16:05.831Z,4.50
2023-01-29T22:18:33.265Z,4.50
2023-01-29T22:21:02.746Z,4.60
2023-01-29T22:23:30.822Z,4.60
2023-01-29T22:26:08.996Z,4.60
2023-01-29T22:28:36.121Z,4.60
2023-01-29T22:31:04.159Z,4.60
2023-01-29T22:33:31.565Z,4.70
2023-01-29T22:35:58.561Z,4.70
2023-01-29T22:38:25.766Z,4.70
2023-01-29T22:40:54.060Z,4.70
2023-01-29T22:43:21.981Z,4.70
2023-01-29T22:45:49.065Z,4.70
2023-01-29T22:48:16.113Z,4.80
2023-01-29T22:50:53.914Z,4.80
2023-01-29T22:53:21.114Z,4.80
2023-01-29T22:55:55.416Z,4.90
2023-01-29T22:58:22.423Z,4.90
2023-01-29T23:00:52.396Z,4.90
2023-01-29T23:03:19.390Z,4.90
2023-01-29T23:05:46.401Z,4.90
2023-01-29T23:08:13.443Z,4.90
2023-01-29T23:10:40.439Z,4.90
2023-01-29T23:13:07.474Z,4.90
2023-01-29T23:15:34.440Z,4.90
2023-01-29T23:18:01.570Z,4.90
2023-01-29T23:20:28.577Z,5.00
2023-01-29T23:22:56.000Z,5.00
2023-01-29T23:25:42.934Z,5.00
2023-01-29T23:28:09.945Z,5.00
2023-01-29T23:30:36.914Z,5.00
2023-01-29T23:33:04.084Z,5.10
2023-01-29T23:35:31.099Z,5.10
2023-01-29T23:37:58.196Z,5.20
2023-01-29T23:40:25.200Z,5.20
2023-01-29T23:42:52.179Z,5.20
2023-01-29T23:45:19.082Z,5.20
2023-01-29T23:47:46.115Z,5.20
2023-01-29T23:50:13.056Z,5.20
2023-01-29T23:52:40.061Z,5.30
2023-01-29T23:55:07.683Z,5.30
2023-01-29T23:57:34.760Z,5.30
